Time;durP1;ratioP1;P1;durP2;ratioP2;P2;SDS_P1;SDS_P2;PMS_P1;PMS_P2;Temp;Humidity;BMP_temperature;BMP_pressure;BME280_temperature;BME280_humidity;BME280_pressure;Samples;Min_cycle;Max_cycle;Signal;HPM_P1;HPM_P2
2023/10/07 07:23:40;;;;;;;13.52;8.48;;;;;;;-145.79;100.00;77932.66;5324922;27;20339;-74
2023/10/07 07:26:12;;;;;;;10.45;7.90;;;;;;;-145.79;100.00;77926.28;5322687;28;20050;-74
2023/10/07 07:28:44;;;;;;;11.27;8.27;;;;;;;-145.79;100.00;77919.94;5311137;28;20022;-74
2023/10/07 07:31:33;;;;;;;11.00;8.25;;;;;;;-145.79;100.00;77919.94;5326259;27;20371;-74
2023/10/07 07:34:19;;;;;;;12.52;8.00;;;;;;;-145.79;100.00;77926.28;5322996;28;20024;-73
2023/10/07 07:36:59;;;;;;;13.43;7.45;;;;;;;-145.79;100.00;77915.69;5320567;28;20466;-70
2023/10/07 07:39:31;;;;;;;14.27;7.90;;;;;;;-145.79;100.00;77911.47;5321853;28;20024;-70
2023/10/07 07:42:22;;;;;;;13.98;8.18;;;;;;;-145.79;100.00;77907.22;5321232;28;20027;-70
2023/10/07 07:44:57;;;;;;;10.45;8.05;;;;;;;-145.79;100.00;77907.22;5304230;28;20028;-70
2023/10/07 07:47:31;;;;;;;11.20;7.67;;;;;;;-145.79;100.00;77909.34;5300763;28;20491;-70
2023/10/07 07:50:06;;;;;;;9.07;7.50;;;;;;;-145.79;100.00;77896.63;5300689;28;20020;-69
2023/10/07 07:52:39;;;;;;;12.60;7.10;;;;;;;-145.79;100.00;77890.25;5301222;28;20028;-69
2023/10/07 07:55:15;;;;;;;10.23;7.45;;;;;;;-145.79;100.00;77890.25;5300416;28;20016;-73
2023/10/07 07:57:46;;;;;;;13.40;7.35;;;;;;;-145.79;100.00;77883.91;5299301;28;20098;-77
2023/10/07 08:00:20;;;;;;;11.48;7.95;;;;;;;-145.79;100.00;77888.13;5307018;28;20483;-75
2023/10/07 08:02:55;;;;;;;11.30;7.50;;;;;;;-145.79;100.00;77894.50;5300430;28;20025;-74
2023/10/07 08:05:33;;;;;;;10.68;8.10;;;;;;;-145.79;100.00;77888.13;5299728;28;20065;-73
2023/10/07 08:08:09;;;;;;;12.13;7.60;;;;;;;-145.79;100.00;77886.00;5303350;28;20020;-73
2023/10/07 08:10:40;;;;;;;;;;;;;;;-145.79;100.00;77871.19;5308832;27;20085;-73
2023/10/07 08:13:20;;;;;;;11.73;7.83;;;;;;;-145.79;100.00;77864.81;5299821;28;19916;-74
2023/10/07 08:16:19;;;;;;;14.02;12.25;;;;;;;-145.79;100.00;77860.56;5300577;28;20335;-76
2023/10/07 08:18:54;;;;;;;9.35;6.95;;;;;;;-145.79;100.00;77860.56;5316715;28;20016;-75
2023/10/07 08:21:28;;;;;;;9.57;6.47;;;;;;;-145.79;99.91;77852.09;5321507;28;20048;-74
2023/10/07 08:24:01;;;;;;;11.80;6.97;;;;;;;-145.79;99.49;77843.63;5321523;28;20036;-74
2023/10/07 08:26:34;;;;;;;11.15;7.03;;;;;;;-145.79;99.08;77841.50;5312982;28;20479;-74
2023/10/07 08:29:13;;;;;;;12.90;6.88;;;;;;;-145.79;99.03;77828.78;5314063;28;20015;-73
2023/10/07 08:31:49;;;;;;;12.48;7.72;;;;;;;-145.79;98.42;77826.66;5308430;27;20031;-76
2023/10/07 08:34:23;;;;;;;10.82;6.80;;;;;;;-145.79;98.11;77816.06;5289462;28;20445;-75
2023/10/07 08:36:59;;;;;;;12.23;7.15;;;;;;;-145.79;98.20;77805.47;5286760;28;20033;-76
2023/10/07 08:39:44;;;;;;;11.27;8.10;;;;;;;-145.79;98.03;77803.34;5285087;28;20051;-75
2023/10/07 08:42:25;;;;;;;11.45;6.65;;;;;;;-145.79;97.51;77801.22;5287725;28;20435;-75
2023/10/07 08:45:00;;;;;;;9.77;7.13;;;;;;;-145.79;97.09;77801.22;5307271;28;20164;-74
2023/10/07 08:47:43;;;;;;;9.25;6.60;;;;;;;-145.79;97.14;77792.75;5306388;28;20085;-73
2023/10/07 08:50:23;;;;;;;17.23;12.80;;;;;;;-145.79;96.41;77792.75;5306629;28;20036;-75
2023/10/07 08:53:06;;;;;;;9.23;6.85;;;;;;;-145.79;96.07;77775.78;5288068;28;20041;-71
2023/10/07 08:55:39;;;;;;;9.88;8.73;;;;;;;-145.79;96.01;77767.31;5284500;28;20459;-75
2023/10/07 08:58:14;;;;;;;10.48;7.13;;;;;;;-145.79;95.21;77758.81;5285918;28;20028;-76
2023/10/07 09:00:50;;;;;;;10.90;7.30;;;;;;;-145.79;95.08;77754.59;5285422;28;20024;-74
2023/10/07 09:03:26;;;;;;;11.23;6.03;;;;;;;-145.79;95.21;77744.00;5284139;28;20024;-75
2023/10/07 09:06:06;;;;;;;7.30;5.88;;;;;;;-145.79;94.55;77735.50;5285360;28;20058;-74
2023/10/07 09:08:37;;;;;;;8.60;6.18;;;;;;;-145.79;93.94;77735.50;5291447;28;20031;-74
2023/10/07 09:11:13;;;;;;;9.13;6.28;;;;;;;-145.79;93.32;77733.38;5305906;28;20467;-75
2023/10/07 09:13:46;;;;;;;9.90;6.30;;;;;;;-145.79;93.04;77729.16;5306180;28;20020;-75
2023/10/07 09:16:21;;;;;;;12.75;6.70;;;;;;;-145.79;92.93;77718.56;5305539;28;20435;-74
2023/10/07 09:18:55;;;;;;;7.88;5.93;;;;;;;-145.79;92.16;77703.72;5305216;28;20103;-74
2023/10/07 09:21:33;;;;;;;9.00;6.10;;;;;;;-145.79;91.61;77695.22;5305619;28;20062;-76
2023/10/07 09:24:13;;;;;;;10.55;5.60;;;;;;;-145.79;91.05;77686.75;5305481;28;20463;-71
2023/10/07 09:26:49;;;;;;;7.57;5.82;;;;;;;-145.79;90.79;77661.31;5289254;28;20020;-73
2023/10/07 09:29:24;;;;;;;10.02;5.65;;;;;;;-145.79;89.76;77665.56;5285002;28;20035;-73
2023/10/07 09:32:04;;;;;;;9.15;5.68;;;;;;;-145.79;89.72;77667.69;5284234;28;20024;-73
2023/10/07 09:34:45;;;;;;;12.88;6.07;;;;;;;-145.79;89.18;77650.72;5288615;28;20045;-70
2023/10/07 09:37:26;;;;;;;11.88;5.75;;;;;;;-145.79;88.26;77640.13;5315896;28;20094;-74
2023/10/07 09:43:13;;;;;;;9.15;6.07;;;;;;;-145.79;87.18;77625.28;5308044;28;20040;-74
2023/10/07 09:45:52;;;;;;;;;;;;;;;-145.79;87.51;77618.91;5283567;28;20024;-74
2023/10/07 09:48:30;;;;;;;25.27;20.60;;;;;;;-145.79;86.25;77610.44;5284143;28;20421;-74
2023/10/07 09:51:14;;;;;;;8.38;5.38;;;;;;;-145.79;86.29;77614.69;5283835;28;20028;-74
2023/10/07 09:54:16;;;;;;;9.95;5.25;;;;;;;-145.79;86.82;77589.25;5284392;28;20025;-74
2023/10/07 09:57:19;;;;;;;6.85;4.90;;;;;;;-145.79;85.95;77585.00;5284294;28;20100;-74
2023/10/07 10:03:20;;;;;;;7.00;5.20;;;;;;;-145.79;84.85;77570.16;5297611;28;20036;-76
2023/10/07 10:06:24;;;;;;;9.75;6.28;;;;;;;-145.79;84.33;77557.44;5304341;28;20052;-76
2023/10/07 10:08:59;;;;;;;10.45;5.75;;;;;;;-145.79;83.85;77565.94;5303523;28;20035;-76
2023/10/07 10:11:31;;;;;;;11.65;5.20;;;;;;;-145.79;83.73;77561.69;5291538;28;20070;-75
2023/10/07 10:16:51;;;;;;;11.38;5.45;;;;;;;-145.79;83.44;77546.84;5308943;28;20028;-74
2023/10/07 10:19:47;;;;;;;5.95;4.30;;;;;;;-145.79;83.49;77542.59;5282441;28;20119;-73
2023/10/07 10:22:23;;;;;;;10.10;5.10;;;;;;;-145.79;82.68;77532.00;5282296;28;20120;-70
2023/10/07 10:25:14;;;;;;;8.65;4.03;;;;;;;-145.79;81.66;77534.13;5283889;28;20040;-70
2023/10/07 10:27:47;;;;;;;8.50;4.60;;;;;;;-145.79;80.75;77538.38;5283315;28;20012;-74
2023/10/07 10:30:22;;;;;;;7.55;4.57;;;;;;;-145.79;81.85;77525.66;5283065;28;20463;-73
2023/10/07 10:32:58;;;;;;;7.82;4.20;;;;;;;-145.79;80.06;77525.66;5283100;28;20017;-73
2023/10/07 10:35:33;;;;;;;7.22;4.60;;;;;;;-145.79;80.15;77517.16;5283667;28;20414;-74
2023/10/07 10:38:09;;;;;;;9.60;5.57;;;;;;;-145.79;79.58;77523.53;5301264;28;20023;-74
2023/10/07 10:40:45;;;;;;;7.55;3.72;;;;;;;-145.79;78.46;77517.16;5303780;28;20052;-71
2023/10/07 10:43:24;;;;;;;9.20;4.43;;;;;;;-145.79;78.66;77512.94;5303550;28;20480;-72
2023/10/07 10:46:05;;;;;;;6.68;3.95;;;;;;;-145.79;78.85;77500.22;5304383;28;20028;-72
2023/10/07 10:48:38;;;;;;;9.40;5.10;;;;;;;-145.79;78.06;77489.63;5282767;28;20029;-75
2023/10/07 10:51:12;;;;;;;5.95;3.65;;;;;;;-145.79;77.90;77485.38;5285105;28;20569;-75
2023/10/07 10:53:46;;;;;;;21.80;17.75;;;;;;;-145.79;78.27;77474.78;5283694;28;20051;-78
2023/10/07 10:56:18;;;;;;;6.53;5.13;;;;;;;-145.79;77.38;77462.06;5283684;28;20032;-74
2023/10/07 10:58:55;;;;;;;6.28;3.22;;;;;;;-145.79;77.84;77455.69;5284085;28;20328;-74
2023/10/07 11:01:38;;;;;;;6.80;4.05;;;;;;;-145.79;76.43;77445.09;5283382;28;20119;-75
2023/10/07 11:04:15;;;;;;;8.20;3.88;;;;;;;-145.79;76.72;77430.25;5283591;28;20467;-74
2023/10/07 11:06:51;;;;;;;7.72;4.15;;;;;;;-145.79;76.13;77428.16;5283300;28;20020;-75
2023/10/07 11:09:35;;;;;;;8.27;4.07;;;;;;;-145.79;74.68;77421.78;5282554;28;20066;-74
2023/10/07 11:12:09;;;;;;;7.78;4.22;;;;;;;-145.79;74.51;77419.66;5283063;28;20036;-74
2023/10/07 11:14:41;;;;;;;11.10;4.93;;;;;;;-145.79;73.71;77426.03;5282228;28;20024;-75
2023/10/07 11:17:12;;;;;;;12.25;4.45;;;;;;;-145.79;74.58;77411.19;5284507;28;20043;-71
2023/10/07 11:19:53;;;;;;;9.35;4.22;;;;;;;-145.79;74.55;77411.19;5283027;28;20055;-71
2023/10/07 11:22:24;;;;;;;11.18;4.78;;;;;;;-145.79;74.69;77394.22;5281215;28;20411;-74
2023/10/07 11:24:56;;;;;;;7.40;4.20;;;;;;;-145.79;73.98;77383.63;5292462;28;20039;-73
2023/10/07 11:27:30;;;;;;;9.00;4.90;;;;;;;-145.79;73.76;77370.91;5303515;28;20032;-69
2023/10/07 11:30:03;;;;;;;8.07;4.40;;;;;;;-145.79;73.29;77379.41;5302740;28;20054;-73
2023/10/07 11:32:40;;;;;;;7.38;4.63;;;;;;;-145.79;72.83;77368.78;5303231;28;20020;-73
2023/10/07 11:35:27;;;;;;;8.88;4.63;;;;;;;-145.79;73.13;77360.31;5282897;28;20495;-73
2023/10/07 11:37:58;;;;;;;6.72;3.80;;;;;;;-145.79;73.56;77339.13;5282491;28;20078;-74
2023/10/07 11:40:37;;;;;;;8.00;4.85;;;;;;;-145.79;72.30;77351.84;5282406;28;20017;-74
2023/10/07 11:43:08;;;;;;;10.75;4.22;;;;;;;-145.79;72.63;77332.75;5282188;28;20410;-72
2023/10/07 11:45:43;;;;;;;8.85;4.72;;;;;;;-145.79;72.59;77330.66;5282457;28;20078;-71
2023/10/07 11:48:15;;;;;;;10.88;4.88;;;;;;;-145.79;72.40;77300.97;5281884;28;20032;-72
2023/10/07 11:50:47;;;;;;;5.93;4.07;;;;;;;-145.79;72.67;77298.84;5297278;28;20399;-73
2023/10/07 11:53:19;;;;;;;6.43;3.80;;;;;;;-145.79;71.89;77300.97;5303247;28;20031;-75
2023/10/07 11:55:51;;;;;;;8.60;4.75;;;;;;;-145.79;71.65;77298.84;5303454;28;20032;-70
2023/10/07 11:58:24;;;;;;;6.20;4.10;;;;;;;-145.79;71.52;77294.59;5301129;28;20016;-72
2023/10/07 12:00:55;;;;;;;5.20;3.55;;;;;;;-145.79;72.03;77273.41;5302908;28;20124;-70
2023/10/07 12:03:30;;;;;;;7.18;3.85;;;;;;;-145.79;72.30;77267.06;5303332;28;20038;-70
2023/10/07 12:06:05;;;;;;;7.55;4.68;;;;;;;-145.79;71.41;77258.56;5302678;28;20020;-70
2023/10/07 12:08:39;;;;;;;8.93;4.85;;;;;;;-145.79;70.34;77250.09;5287722;28;20444;-70
2023/10/07 12:11:10;;;;;;;6.57;4.40;;;;;;;-145.79;71.13;77247.97;5285271;28;20033;-70
2023/10/07 12:13:41;;;;;;;6.88;4.07;;;;;;;-145.79;69.84;77228.91;5285894;28;20486;-69
2023/10/07 12:16:13;;;;;;;10.32;5.38;;;;;;;-145.79;68.71;77228.91;5298517;28;20382;-69
2023/10/07 12:18:45;;;;;;;7.72;4.07;;;;;;;-145.79;69.12;77228.91;5306415;28;20031;-70
2023/10/07 12:21:17;;;;;;;8.40;4.50;;;;;;;-145.79;69.27;77214.06;5307099;28;20023;-71
2023/10/07 12:23:48;;;;;;;8.07;4.95;;;;;;;-145.79;67.84;77207.72;5306514;28;20020;-75
2023/10/07 12:26:20;;;;;;;10.02;5.00;;;;;;;-145.79;68.18;77195.00;5306739;27;20020;-74
2023/10/07 12:28:53;;;;;;;9.95;5.05;;;;;;;-145.79;68.15;77182.28;5306980;28;20028;-72
2023/10/07 12:31:24;;;;;;;7.10;4.75;;;;;;;-145.79;67.83;77192.88;5307369;28;20016;-71
2023/10/07 12:33:56;;;;;;;11.35;4.72;;;;;;;-145.79;67.04;77184.41;5305047;28;20024;-68
2023/10/07 12:36:30;;;;;;;10.57;5.88;;;;;;;-145.79;65.93;77192.88;5306989;28;20035;-68
2023/10/07 12:39:01;;;;;;;8.30;4.60;;;;;;;-145.79;66.27;77182.28;5304776;28;20074;-74
2023/10/07 12:41:33;;;;;;;7.47;5.18;;;;;;;-145.79;66.00;77178.03;5307432;28;20553;-75
2023/10/07 12:44:08;;;;;;;5.88;5.00;;;;;;;-145.79;66.18;77180.16;5308745;28;20099;-74
2023/10/07 12:46:40;;;;;;;;;;;;;;;-145.79;66.27;77156.84;5308787;28;20054;-72
2023/10/07 12:49:14;;;;;;;7.47;4.95;;;;;;;-145.79;65.47;77175.91;5307643;28;19916;-74
2023/10/07 12:51:46;;;;;;;8.75;5.47;;;;;;;-145.79;66.20;77182.28;5311364;28;20107;-74
2023/10/07 12:54:23;;;;;;;8.15;4.97;;;;;;;-145.79;66.04;77178.03;5310297;28;20076;-75
2023/10/07 12:56:54;;;;;;;7.60;5.75;;;;;;;-145.79;66.93;77163.19;5310123;28;20459;-75
2023/10/07 12:59:28;;;;;;;9.45;6.05;;;;;;;-145.79;66.55;77150.47;5296574;28;20048;-75
2023/10/07 13:02:02;;;;;;;9.00;5.22;;;;;;;-145.79;66.65;77150.47;5297582;28;20066;-70
2023/10/07 13:04:37;;;;;;;7.90;5.03;;;;;;;-145.79;66.12;77139.88;5306165;28;20046;-72
2023/10/07 13:07:10;;;;;;;11.32;5.75;;;;;;;-145.79;66.33;77133.53;5293913;28;20024;-71
2023/10/07 13:09:42;;;;;;;8.45;4.93;;;;;;;-145.79;66.95;77114.44;5285230;28;20025;-71
2023/10/07 13:12:15;;;;;;;6.72;4.43;;;;;;;-145.79;66.20;77129.28;5285153;28;20040;-73
2023/10/07 13:14:47;;;;;;;9.18;5.22;;;;;;;-145.79;66.55;77127.16;5284635;28;20064;-74
2023/10/07 13:17:19;;;;;;;8.43;5.10;;;;;;;-145.79;65.93;77108.09;5285383;28;20396;-73
2023/10/07 13:19:51;;;;;;;19.63;14.27;;;;;;;-145.79;66.10;77089.00;5285029;28;20101;-75
2023/10/07 13:22:26;;;;;;;8.43;5.13;;;;;;;-145.79;66.43;77084.78;5284061;28;20499;-75
2023/10/07 13:24:58;;;;;;;10.03;5.83;;;;;;;-145.79;66.39;77093.25;5302768;28;20043;-75
2023/10/07 13:27:30;;;;;;;7.10;4.97;;;;;;;-145.79;65.74;77089.00;5306017;28;20024;-74
2023/10/07 13:30:05;;;;;;;9.25;5.72;;;;;;;-145.79;65.61;77076.31;5306062;28;20474;-75
2023/10/07 13:32:37;;;;;;;7.57;5.32;;;;;;;-145.79;65.19;77089.00;5298022;28;20471;-76
2023/10/07 13:35:17;;;;;;;8.55;5.53;;;;;;;-145.79;64.35;77084.78;5299591;28;20111;-75
2023/10/07 13:37:52;;;;;;;10.07;5.43;;;;;;;-145.79;64.37;77082.66;5284604;28;20052;-75
2023/10/07 13:40:24;;;;;;;9.60;5.85;;;;;;;-145.79;64.89;77089.00;5293091;28;20044;-75
2023/10/07 13:42:55;;;;;;;12.30;5.78;;;;;;;-145.79;64.34;77095.38;5283705;28;20028;-76
2023/10/07 13:45:30;;;;;;;10.98;5.35;;;;;;;-145.79;64.44;77093.25;5284469;28;20024;-75
2023/10/07 13:48:07;;;;;;;10.70;5.27;;;;;;;-145.79;64.98;77089.00;5284396;28;20417;-74
2023/10/07 13:50:39;;;;;;;9.80;4.82;;;;;;;-145.79;65.06;77101.72;5284159;28;20282;-76
2023/10/07 13:53:14;;;;;;;6.45;5.47;;;;;;;-145.79;65.17;77093.25;5284449;28;20102;-75
2023/10/07 13:55:55;;;;;;;6.20;4.63;;;;;;;-145.79;65.61;77089.00;5283911;28;20029;-71
2023/10/07 13:58:26;;;;;;;8.20;5.63;;;;;;;-145.79;65.60;77089.00;5296440;28;20030;-71
2023/10/07 14:00:57;;;;;;;28.75;25.85;;;;;;;-145.79;65.70;77089.00;5302676;28;20370;-71
2023/10/07 14:03:31;;;;;;;9.40;5.05;;;;;;;-145.79;66.00;77076.31;5283140;28;20112;-71
2023/10/07 14:06:06;;;;;;;10.00;5.20;;;;;;;-145.79;65.90;77091.13;5284149;28;20031;-71
2023/10/07 14:08:42;;;;;;;5.95;4.45;;;;;;;-145.79;65.42;77089.00;5283778;28;20039;-72
2023/10/07 14:11:13;;;;;;;9.20;4.97;;;;;;;-145.79;65.85;77089.00;5282741;28;20036;-75
2023/10/07 14:13:47;;;;;;;11.45;5.78;;;;;;;-145.79;64.93;77089.00;5284040;28;20024;-75
2023/10/07 14:16:20;;;;;;;8.20;4.93;;;;;;;-145.79;65.44;77086.91;5283815;28;20429;-76
2023/10/07 14:18:51;;;;;;;9.35;5.18;;;;;;;-145.79;65.42;77097.50;5283356;28;20025;-73
2023/10/07 14:21:25;;;;;;;9.57;5.07;;;;;;;-145.79;65.88;77101.72;5283175;28;20057;-73
2023/10/07 14:23:59;;;;;;;11.00;4.55;;;;;;;-145.79;66.47;77110.22;5283926;28;20141;-72
2023/10/07 14:26:33;;;;;;;8.93;4.75;;;;;;;-145.79;66.69;77103.84;5282674;28;20024;-71
2023/10/07 14:29:07;;;;;;;8.80;4.90;;;;;;;-145.79;66.95;77110.22;5283283;28;20073;-72
2023/10/07 14:31:43;;;;;;;12.93;11.55;;;;;;;-145.79;67.17;77105.97;5282358;28;20049;-72
2023/10/07 14:34:17;;;;;;;8.85;5.35;;;;;;;-145.79;67.09;77097.50;5304441;28;20040;-72
2023/10/07 14:36:48;;;;;;;7.72;4.88;;;;;;;-145.79;67.02;77091.13;5303992;28;20123;-73
2023/10/07 14:39:22;;;;;;;10.98;4.93;;;;;;;-145.79;66.70;77089.00;5303477;28;20107;-73
2023/10/07 14:41:54;;;;;;;11.23;3.97;;;;;;;-145.79;66.43;77072.06;5303183;28;20024;-73
2023/10/07 14:44:25;;;;;;;13.40;5.30;;;;;;;-145.79;66.53;77063.59;5303966;28;20289;-74
2023/10/07 14:46:57;;;;;;;9.15;4.18;;;;;;;-145.79;66.74;77067.81;5303622;28;20054;-76
2023/10/07 14:49:30;;;;;;;8.15;4.28;;;;;;;-145.79;66.64;77072.06;5303445;28;20149;-76
2023/10/07 14:52:01;;;;;;;17.25;15.48;;;;;;;-145.79;67.02;77055.09;5304081;28;20012;-76
2023/10/07 14:54:33;;;;;;;10.23;5.50;;;;;;;-145.79;66.04;77059.34;5303342;28;20031;-76
2023/10/07 14:57:13;;;;;;;9.60;4.95;;;;;;;-145.79;66.11;77044.50;5299861;28;20020;-75
2023/10/07 14:59:44;;;;;;;10.25;5.13;;;;;;;-145.79;66.56;77067.81;5293511;28;20478;-75
2023/10/07 15:02:15;;;;;;;9.07;4.63;;;;;;;-145.79;66.03;77069.94;5303942;28;20024;-75
2023/10/07 15:04:50;;;;;;;26.42;23.65;;;;;;;-145.79;66.67;77086.91;5303516;28;20028;-75
2023/10/07 15:07:21;;;;;;;8.48;4.88;;;;;;;-145.79;66.25;77101.72;5281875;28;20056;-75
2023/10/07 15:09:58;;;;;;;7.32;5.20;;;;;;;-145.79;66.26;77099.63;5283046;28;20415;-77
2023/10/07 15:12:30;;;;;;;9.02;5.63;;;;;;;-145.79;66.54;77093.25;5291912;28;20107;-77
2023/10/07 15:15:01;;;;;;;10.40;5.30;;;;;;;-145.79;66.28;77093.25;5312158;28;20103;-78
2023/10/07 15:17:34;;;;;;;8.65;4.68;;;;;;;-145.79;67.13;77089.00;5304058;28;20020;-69
2023/10/07 15:20:06;;;;;;;10.40;5.18;;;;;;;-145.79;66.90;77099.63;5303827;28;20104;-70
2023/10/07 15:22:39;;;;;;;7.80;4.07;;;;;;;-145.79;67.11;77101.72;5308861;28;20457;-76
2023/10/07 15:25:14;;;;;;;9.65;5.40;;;;;;;-145.79;66.77;77118.69;5324574;28;20126;-73
2023/10/07 15:27:45;;;;;;;6.72;4.45;;;;;;;-145.79;67.00;77122.94;5302943;28;20032;-72
2023/10/07 15:30:18;;;;;;;7.63;4.15;;;;;;;-145.79;67.32;77118.69;5303433;28;20477;-75
2023/10/07 15:32:49;;;;;;;9.27;4.82;;;;;;;-145.79;67.27;77099.63;5284645;28;20032;-74
2023/10/07 15:35:23;;;;;;;6.53;4.18;;;;;;;-145.79;67.01;77091.13;5281604;28;20017;-73
2023/10/07 15:37:54;;;;;;;7.85;4.63;;;;;;;-145.79;67.60;77099.63;5282604;28;20053;-76
2023/10/07 15:40:26;;;;;;;12.95;4.75;;;;;;;-145.79;66.96;77118.69;5282854;28;20170;-77
2023/10/07 15:42:57;;;;;;;6.97;4.70;;;;;;;-145.79;67.39;77125.03;5281614;28;20093;-77
2023/10/07 15:45:29;;;;;;;8.30;4.72;;;;;;;-145.79;67.62;77131.41;5286631;28;20021;-76
2023/10/07 15:48:00;;;;;;;9.02;4.10;;;;;;;-145.79;67.88;77118.69;5312872;28;20032;-76
2023/10/07 15:50:31;;;;;;;7.03;4.32;;;;;;;-145.79;68.67;77125.03;5319134;28;20055;-76
2023/10/07 15:53:03;;;;;;;9.13;5.35;;;;;;;-145.79;69.71;77127.16;5328609;28;20023;-75
2023/10/07 15:55:35;;;;;;;9.50;4.93;;;;;;;-145.79;70.57;77122.94;5310773;27;20039;-75
2023/10/07 15:58:06;;;;;;;7.35;4.35;;;;;;;-145.79;70.92;77135.66;5287296;28;20040;-75
2023/10/07 16:00:40;;;;;;;8.90;4.68;;;;;;;-145.79;71.61;77133.53;5286133;28;20387;-74
2023/10/07 16:03:12;;;;;;;7.07;4.05;;;;;;;-145.79;71.76;77139.88;5285384;28;20028;-76
2023/10/07 16:05:47;;;;;;;8.18;5.05;;;;;;;-145.79;72.09;77152.59;5286228;28;20035;-75
2023/10/07 16:08:20;;;;;;;7.53;4.07;;;;;;;-145.79;72.38;77154.72;5284844;28;20024;-76
2023/10/07 16:10:52;;;;;;;6.90;4.38;;;;;;;-145.79;72.87;77165.31;5285103;28;20020;-75
2023/10/07 16:13:23;;;;;;;7.40;4.82;;;;;;;-145.79;72.74;77163.19;5290785;28;20381;-75
2023/10/07 16:16:09;;;;;;;7.90;4.72;;;;;;;-145.79;72.90;77165.31;5314810;27;20462;-74
2023/10/07 16:18:42;;;;;;;7.35;4.55;;;;;;;-145.79;73.10;77173.78;5285167;28;20100;-75
2023/10/07 16:21:20;;;;;;;8.82;4.47;;;;;;;-145.79;73.49;77167.44;5322314;28;20126;-75
2023/10/07 16:23:58;;;;;;;8.20;5.10;;;;;;;-145.79;73.69;77167.44;5288695;28;20142;-75
2023/10/07 16:26:33;;;;;;;7.00;4.28;;;;;;;-145.79;73.94;77178.03;5305366;28;20139;-75
2023/10/07 16:29:06;;;;;;;8.30;4.30;;;;;;;-145.79;74.07;77182.28;5307089;28;20031;-75
2023/10/07 16:31:37;;;;;;;7.35;4.40;;;;;;;-145.79;74.46;77186.50;5300363;28;20039;-75
2023/10/07 16:34:11;;;;;;;6.15;3.95;;;;;;;-145.79;74.68;77186.50;5322853;28;20112;-75
2023/10/07 16:36:43;;;;;;;9.10;4.38;;;;;;;-145.79;74.85;77195.00;5328484;28;20027;-75
2023/10/07 16:39:15;;;;;;;7.10;4.00;;;;;;;-145.79;75.48;77201.34;5315957;27;20036;-75
2023/10/07 16:41:53;;;;;;;6.72;4.63;;;;;;;-145.79;75.62;77205.59;5285588;28;20166;-74
2023/10/07 16:44:25;;;;;;;5.60;4.30;;;;;;;-145.79;75.73;77209.81;5285683;28;20025;-75
2023/10/07 16:46:59;;;;;;;7.03;4.05;;;;;;;-145.79;76.11;77209.81;5285839;28;20094;-74
2023/10/07 16:49:30;;;;;;;6.78;4.50;;;;;;;-145.79;76.38;77222.53;5306297;28;20049;-75
2023/10/07 16:52:01;;;;;;;8.13;4.40;;;;;;;-145.79;76.69;77226.78;5305883;28;20463;-75
2023/10/07 16:54:35;;;;;;;6.22;4.38;;;;;;;-145.79;77.27;77226.78;5312517;28;20032;-75
